sensor_id;sensor_type;location;lat;lon;timestamp;temperature;humidity
3727;DHT22;1879;45.876;12.300;2023-03-21T00:01:43;10.50;99.90
3727;DHT22;1879;45.876;12.300;2023-03-21T00:04:11;10.50;99.90
3727;DHT22;1879;45.876;12.300;2023-03-21T00:06:38;10.40;99.90
3727;DHT22;1879;45.876;12.300;2023-03-21T00:09:05;10.50;99.90
3727;DHT22;1879;45.876;12.300;2023-03-21T00:11:32;10.50;99.90
3727;DHT22;1879;45.876;12.300;2023-03-21T00:13:59;10.50;99.90
3727;DHT22;1879;45.876;12.300;2023-03-21T00:16:28;10.50;99.90
3727;DHT22;1879;45.876;12.300;2023-03-21T00:19:00;10.50;99.90
3727;DHT22;1879;45.876;12.300;2023-03-21T00:21:31;10.50;99.90
3727;DHT22;1879;45.876;12.300;2023-03-21T00:23:59;10.40;99.90
3727;DHT22;1879;45.876;12.300;2023-03-21T00:26:26;10.30;99.90
3727;DHT22;1879;45.876;12.300;2023-03-21T00:28:53;10.20;99.90
3727;DHT22;1879;45.876;12.300;2023-03-21T00:31:20;10.20;99.90
3727;DHT22;1879;45.876;12.300;2023-03-21T00:33:49;10.10;99.90
3727;DHT22;1879;45.876;12.300;2023-03-21T00:36:16;10.10;99.90
3727;DHT22;1879;45.876;12.300;2023-03-21T00:38:43;10.10;99.90
3727;DHT22;1879;45.876;12.300;2023-03-21T00:41:11;10.10;99.90
3727;DHT22;1879;45.876;12.300;2023-03-21T00:43:39;10.20;99.90
3727;DHT22;1879;45.876;12.300;2023-03-21T00:46:06;10.20;99.90
3727;DHT22;1879;45.876;12.300;2023-03-21T00:48:33;10.10;99.90
3727;DHT22;1879;45.876;12.300;2023-03-21T00:51:09;10.10;99.90
3727;DHT22;1879;45.876;12.300;2023-03-21T00:53:37;10.10;99.90
3727;DHT22;1879;45.876;12.300;2023-03-21T00:56:04;10.10;99.90
3727;DHT22;1879;45.876;12.300;2023-03-21T00:58:31;10.00;99.90
3727;DHT22;1879;45.876;12.300;2023-03-21T01:00:58;10.00;99.90
3727;DHT22;1879;45.876;12.300;2023-03-21T01:03:27;9.90;99.90
3727;DHT22;1879;45.876;12.300;2023-03-21T01:05:53;10.00;99.90
3727;DHT22;1879;45.876;12.300;2023-03-21T01:08:32;10.00;99.90
3727;DHT22;1879;45.876;12.300;2023-03-21T01:11:05;10.00;99.90
3727;DHT22;1879;45.876;12.300;2023-03-21T01:13:32;10.00;99.90
3727;DHT22;1879;45.876;12.300;2023-03-21T01:16:00;9.90;99.90
3727;DHT22;1879;45.876;12.300;2023-03-21T01:18:30;9.90;99.90
3727;DHT22;1879;45.876;12.300;2023-03-21T01:20:59;9.90;99.90
3727;DHT22;1879;45.876;12.300;2023-03-21T01:23:28;9.80;99.90
3727;DHT22;1879;45.876;12.300;2023-03-21T01:25:56;9.80;99.90
3727;DHT22;1879;45.876;12.300;2023-03-21T01:28:26;9.70;99.90
3727;DHT22;1879;45.876;12.300;2023-03-21T01:30:53;9.60;99.90
3727;DHT22;1879;45.876;12.300;2023-03-21T01:33:21;9.60;99.90
3727;DHT22;1879;45.876;12.300;2023-03-21T01:35:48;9.60;99.90
3727;DHT22;1879;45.876;12.300;2023-03-21T01:38:15;9.60;99.90
3727;DHT22;1879;45.876;12.300;2023-03-21T01:40:44;9.60;99.90
3727;DHT22;1879;45.876;12.300;2023-03-21T01:43:23;9.60;99.90
3727;DHT22;1879;45.876;12.300;2023-03-21T01:46:20;9.60;99.90
3727;DHT22;1879;45.876;12.300;2023-03-21T01:48:50;9.50;99.90
3727;DHT22;1879;45.876;12.300;2023-03-21T01:51:21;9.60;99.90
3727;DHT22;1879;45.876;12.300;2023-03-21T01:53:48;9.60;99.90
3727;DHT22;1879;45.876;12.300;2023-03-21T01:56:18;9.60;99.90
3727;DHT22;1879;45.876;12.300;2023-03-21T01:58:49;9.60;99.90
3727;DHT22;1879;45.876;12.300;2023-03-21T02:01:17;9.60;99.90
3727;DHT22;1879;45.876;12.300;2023-03-21T02:03:47;9.70;99.90
3727;DHT22;1879;45.876;12.300;2023-03-21T02:06:29;9.70;99.90
3727;DHT22;1879;45.876;12.300;2023-03-21T02:09:00;9.70;99.90
3727;DHT22;1879;45.876;12.300;2023-03-21T02:11:29;9.60;99.90
3727;DHT22;1879;45.876;12.300;2023-03-21T02:13:59;9.60;99.90
3727;DHT22;1879;45.876;12.300;2023-03-21T02:16:36;9.50;99.90
3727;DHT22;1879;45.876;12.300;2023-03-21T02:19:20;9.50;99.90
3727;DHT22;1879;45.876;12.300;2023-03-21T02:22:13;9.50;99.90
3727;DHT22;1879;45.876;12.300;2023-03-21T02:27:45;9.40;99.90
3727;DHT22;1879;45.876;12.300;2023-03-21T02:30:43;9.30;99.90
3727;DHT22;1879;45.876;12.300;2023-03-21T02:33:37;9.20;99.90
3727;DHT22;1879;45.876;12.300;2023-03-21T02:36:16;9.20;99.90
3727;DHT22;1879;45.876;12.300;2023-03-21T02:38:51;9.20;99.90
3727;DHT22;1879;45.876;12.300;2023-03-21T02:41:24;9.20;99.90
3727;DHT22;1879;45.876;12.300;2023-03-21T02:43:58;9.20;99.90
3727;DHT22;1879;45.876;12.300;2023-03-21T02:46:34;9.10;99.90
3727;DHT22;1879;45.876;12.300;2023-03-21T02:49:08;9.10;99.90
3727;DHT22;1879;45.876;12.300;2023-03-21T02:51:38;9.00;99.90
3727;DHT22;1879;45.876;12.300;2023-03-21T02:54:11;9.00;99.90
3727;DHT22;1879;45.876;12.300;2023-03-21T02:56:40;9.00;99.90
3727;DHT22;1879;45.876;12.300;2023-03-21T02:59:08;8.90;99.90
3727;DHT22;1879;45.876;12.300;2023-03-21T03:01:35;8.90;99.90
3727;DHT22;1879;45.876;12.300;2023-03-21T03:04:03;8.90;99.90
3727;DHT22;1879;45.876;12.300;2023-03-21T03:06:35;8.90;99.90
3727;DHT22;1879;45.876;12.300;2023-03-21T03:09:16;8.90;99.90
3727;DHT22;1879;45.876;12.300;2023-03-21T03:11:50;8.90;99.90
3727;DHT22;1879;45.876;12.300;2023-03-21T03:14:31;9.00;99.90
3727;DHT22;1879;45.876;12.300;2023-03-21T03:17:13;8.90;99.90
3727;DHT22;1879;45.876;12.300;2023-03-21T03:19:53;8.80;99.90
3727;DHT22;1879;45.876;12.300;2023-03-21T03:22:28;8.80;99.90
3727;DHT22;1879;45.876;12.300;2023-03-21T03:25:04;8.80;99.90
3727;DHT22;1879;45.876;12.300;2023-03-21T03:27:35;8.80;99.90
3727;DHT22;1879;45.876;12.300;2023-03-21T03:30:05;8.80;99.90
3727;DHT22;1879;45.876;12.300;2023-03-21T03:32:37;8.70;99.90
3727;DHT22;1879;45.876;12.300;2023-03-21T03:35:10;8.70;99.90
3727;DHT22;1879;45.876;12.300;2023-03-21T03:37:40;8.70;99.90
3727;DHT22;1879;45.876;12.300;2023-03-21T03:40:12;8.70;99.90
3727;DHT22;1879;45.876;12.300;2023-03-21T03:42:45;8.70;99.90
3727;DHT22;1879;45.876;12.300;2023-03-21T03:45:13;8.70;99.90
3727;DHT22;1879;45.876;12.300;2023-03-21T03:47:43;8.80;99.90
3727;DHT22;1879;45.876;12.300;2023-03-21T03:50:17;8.90;99.90
3727;DHT22;1879;45.876;12.300;2023-03-21T03:52:48;8.90;99.90
3727;DHT22;1879;45.876;12.300;2023-03-21T03:55:20;8.90;99.90
3727;DHT22;1879;45.876;12.300;2023-03-21T03:57:48;8.90;99.90
3727;DHT22;1879;45.876;12.300;2023-03-21T04:00:16;8.90;99.90
3727;DHT22;1879;45.876;12.300;2023-03-21T04:02:43;9.00;99.90
3727;DHT22;1879;45.876;12.300;2023-03-21T04:05:11;9.00;99.90
3727;DHT22;1879;45.876;12.300;2023-03-21T04:07:38;9.00;99.90
3727;DHT22;1879;45.876;12.300;2023-03-21T04:10:06;9.00;99.90
3727;DHT22;1879;45.876;12.300;2023-03-21T04:12:34;9.00;99.90
3727;DHT22;1879;45.876;12.300;2023-03-21T04:15:01;8.90;99.90
3727;DHT22;1879;45.876;12.300;2023-03-21T04:17:28;8.90;99.90
3727;DHT22;1879;45.876;12.300;2023-03-21T04:19:57;8.80;99.90
3727;DHT22;1879;45.876;12.300;2023-03-21T04:22:25;8.80;99.90
3727;DHT22;1879;45.876;12.300;2023-03-21T04:24:52;8.70;99.90
3727;DHT22;1879;45.876;12.300;2023-03-21T04:27:19;8.70;99.90
3727;DHT22;1879;45.876;12.300;2023-03-21T04:29:47;8.60;99.90
3727;DHT22;1879;45.876;12.300;2023-03-21T04:32:15;8.60;99.90
3727;DHT22;1879;45.876;12.300;2023-03-21T04:34:44;8.60;99.90
3727;DHT22;1879;45.876;12.300;2023-03-21T04:37:14;8.60;99.90
3727;DHT22;1879;45.876;12.300;2023-03-21T04:39:41;8.60;99.90
3727;DHT22;1879;45.876;12.300;2023-03-21T04:42:08;8.60;99.90
3727;DHT22;1879;45.876;12.300;2023-03-21T04:44:35;8.60;99.90
3727;DHT22;1879;45.876;12.300;2023-03-21T04:47:07;8.50;99.90
3727;DHT22;1879;45.876;12.300;2023-03-21T04:49:34;8.50;99.90
3727;DHT22;1879;45.876;12.300;2023-03-21T04:52:01;8.50;99.90
3727;DHT22;1879;45.876;12.300;2023-03-21T04:54:28;8.50;99.90
3727;DHT22;1879;45.876;12.300;2023-03-21T04:56:55;8.50;99.90
3727;DHT22;1879;45.876;12.300;2023-03-21T04:59:22;8.50;99.90
3727;DHT22;1879;45.876;12.300;2023-03-21T05:01:49;8.50;99.90
3727;DHT22;1879;45.876;12.300;2023-03-21T05:04:17;8.50;99.90
3727;DHT22;1879;45.876;12.300;2023-03-21T05:06:44;8.60;99.90
3727;DHT22;1879;45.876;12.300;2023-03-21T05:09:12;8.60;99.90
3727;DHT22;1879;45.876;12.300;2023-03-21T05:11:39;8.60;99.90
3727;DHT22;1879;45.876;12.300;2023-03-21T05:14:08;8.60;99.90
3727;DHT22;1879;45.876;12.300;2023-03-21T05:16:38;8.60;99.90
3727;DHT22;1879;45.876;12.300;2023-03-21T05:19:13;8.60;99.90
3727;DHT22;1879;45.876;12.300;2023-03-21T05:21:41;8.60;99.90
3727;DHT22;1879;45.876;12.300;2023-03-21T05:24:12;8.50;99.90
3727;DHT22;1879;45.876;12.300;2023-03-21T05:26:40;8.60;99.90
3727;DHT22;1879;45.876;12.300;2023-03-21T05:29:08;8.50;99.90
3727;DHT22;1879;45.876;12.300;2023-03-21T05:31:35;8.50;99.90
3727;DHT22;1879;45.876;12.300;2023-03-21T05:34:03;8.50;99.90
3727;DHT22;1879;45.876;12.300;2023-03-21T05:36:30;8.50;99.90
3727;DHT22;1879;45.876;12.300;2023-03-21T05:38:59;8.60;99.90
3727;DHT22;1879;45.876;12.300;2023-03-21T05:41:28;8.60;99.90
3727;DHT22;1879;45.876;12.300;2023-03-21T05:43:55;8.70;99.90
3727;DHT22;1879;45.876;12.300;2023-03-21T05:46:22;8.70;99.90
3727;DHT22;1879;45.876;12.300;2023-03-21T05:48:48;8.80;99.90
3727;DHT22;1879;45.876;12.300;2023-03-21T05:51:16;8.80;99.90
3727;DHT22;1879;45.876;12.300;2023-03-21T05:53:43;8.80;99.90
3727;DHT22;1879;45.876;12.300;2023-03-21T05:56:12;8.80;99.90
3727;DHT22;1879;45.876;12.300;2023-03-21T05:58:39;8.90;99.90
3727;DHT22;1879;45.876;12.300;2023-03-21T06:01:06;8.90;99.90
3727;DHT22;1879;45.876;12.300;2023-03-21T06:03:33;9.00;99.90
3727;DHT22;1879;45.876;12.300;2023-03-21T06:06:00;9.00;99.90
3727;DHT22;1879;45.876;12.300;2023-03-21T06:08:28;9.10;99.90
3727;DHT22;1879;45.876;12.300;2023-03-21T06:10:55;9.10;99.90
3727;DHT22;1879;45.876;12.300;2023-03-21T06:13:23;9.10;99.90
3727;DHT22;1879;45.876;12.300;2023-03-21T06:15:50;9.10;99.90
3727;DHT22;1879;45.876;12.300;2023-03-21T06:18:17;9.10;99.90
3727;DHT22;1879;45.876;12.300;2023-03-21T06:20:44;9.10;99.90
3727;DHT22;1879;45.876;12.300;2023-03-21T06:23:11;9.10;99.90
3727;DHT22;1879;45.876;12.300;2023-03-21T06:25:38;9.20;99.90
3727;DHT22;1879;45.876;12.300;2023-03-21T06:28:04;9.30;99.90
3727;DHT22;1879;45.876;12.300;2023-03-21T06:30:33;9.40;99.90
3727;DHT22;1879;45.876;12.300;2023-03-21T06:33:00;9.50;99.90
3727;DHT22;1879;45.876;12.300;2023-03-21T06:35:27;9.70;99.90
3727;DHT22;1879;45.876;12.300;2023-03-21T06:37:54;9.80;99.90
3727;DHT22;1879;45.876;12.300;2023-03-21T06:40:22;9.90;99.90
3727;DHT22;1879;45.876;12.300;2023-03-21T06:42:50;10.10;99.90
3727;DHT22;1879;45.876;12.300;2023-03-21T06:45:17;10.20;99.90
3727;DHT22;1879;45.876;12.300;2023-03-21T06:47:45;10.30;99.90
3727;DHT22;1879;45.876;12.300;2023-03-21T06:50:12;10.40;99.90
3727;DHT22;1879;45.876;12.300;2023-03-21T06:52:39;10.50;99.90
3727;DHT22;1879;45.876;12.300;2023-03-21T06:55:06;10.60;99.90
3727;DHT22;1879;45.876;12.300;2023-03-21T06:57:33;10.70;99.90
3727;DHT22;1879;45.876;12.300;2023-03-21T07:00:00;10.70;99.90
3727;DHT22;1879;45.876;12.300;2023-03-21T07:02:30;10.70;99.90
3727;DHT22;1879;45.876;12.300;2023-03-21T07:04:58;10.80;99.90
3727;DHT22;1879;45.876;12.300;2023-03-21T07:07:25;10.80;99.90
3727;DHT22;1879;45.876;12.300;2023-03-21T07:09:54;10.90;99.90
3727;DHT22;1879;45.876;12.300;2023-03-21T07:12:21;10.90;99.90
3727;DHT22;1879;45.876;12.300;2023-03-21T07:14:48;11.00;99.90
3727;DHT22;1879;45.876;12.300;2023-03-21T07:17:15;11.10;99.90
3727;DHT22;1879;45.876;12.300;2023-03-21T07:19:42;11.20;99.90
3727;DHT22;1879;45.876;12.300;2023-03-21T07:22:10;11.20;99.90
3727;DHT22;1879;45.876;12.300;2023-03-21T07:24:37;11.30;99.90
3727;DHT22;1879;45.876;12.300;2023-03-21T07:27:04;11.40;99.90
3727;DHT22;1879;45.876;12.300;2023-03-21T07:29:31;11.50;99.90
3727;DHT22;1879;45.876;12.300;2023-03-21T07:31:58;11.60;99.90
3727;DHT22;1879;45.876;12.300;2023-03-21T07:34:26;11.60;99.90
3727;DHT22;1879;45.876;12.300;2023-03-21T07:36:58;11.70;99.90
3727;DHT22;1879;45.876;12.300;2023-03-21T07:39:26;11.70;99.90
3727;DHT22;1879;45.876;12.300;2023-03-21T07:41:54;11.80;99.90
3727;DHT22;1879;45.876;12.300;2023-03-21T07:44:21;11.80;99.90
3727;DHT22;1879;45.876;12.300;2023-03-21T07:46:48;11.90;99.90
3727;DHT22;1879;45.876;12.300;2023-03-21T07:49:15;12.00;99.90
3727;DHT22;1879;45.876;12.300;2023-03-21T07:51:42;12.00;99.90
3727;DHT22;1879;45.876;12.300;2023-03-21T07:54:09;12.00;99.90
3727;DHT22;1879;45.876;12.300;2023-03-21T07:56:37;12.10;99.90
3727;DHT22;1879;45.876;12.300;2023-03-21T07:59:04;12.20;99.90
3727;DHT22;1879;45.876;12.300;2023-03-21T08:01:32;12.20;99.90
3727;DHT22;1879;45.876;12.300;2023-03-21T08:03:59;12.30;99.90
3727;DHT22;1879;45.876;12.300;2023-03-21T08:06:26;12.40;99.90
3727;DHT22;1879;45.876;12.300;2023-03-21T08:08:56;12.40;99.90
3727;DHT22;1879;45.876;12.300;2023-03-21T08:11:23;12.40;99.90
3727;DHT22;1879;45.876;12.300;2023-03-21T08:13:53;12.50;99.90
3727;DHT22;1879;45.876;12.300;2023-03-21T08:16:20;12.70;99.90
3727;DHT22;1879;45.876;12.300;2023-03-21T08:18:47;12.70;99.90
3727;DHT22;1879;45.876;12.300;2023-03-21T08:21:14;12.80;99.90
3727;DHT22;1879;45.876;12.300;2023-03-21T08:23:41;12.90;99.90
3727;DHT22;1879;45.876;12.300;2023-03-21T08:26:09;13.00;99.90
3727;DHT22;1879;45.876;12.300;2023-03-21T08:28:36;13.00;99.90
3727;DHT22;1879;45.876;12.300;2023-03-21T08:31:09;13.00;99.90
3727;DHT22;1879;45.876;12.300;2023-03-21T08:33:36;13.10;99.90
3727;DHT22;1879;45.876;12.300;2023-03-21T08:36:04;13.10;99.90
3727;DHT22;1879;45.876;12.300;2023-03-21T08:38:31;13.20;99.90
3727;DHT22;1879;45.876;12.300;2023-03-21T08:40:59;13.30;99.90
3727;DHT22;1879;45.876;12.300;2023-03-21T08:43:26;13.50;99.90
3727;DHT22;1879;45.876;12.300;2023-03-21T08:45:54;13.60;99.90
3727;DHT22;1879;45.876;12.300;2023-03-21T08:48:22;13.60;99.90
3727;DHT22;1879;45.876;12.300;2023-03-21T08:50:49;13.70;99.90
3727;DHT22;1879;45.876;12.300;2023-03-21T08:53:16;13.80;99.90
3727;DHT22;1879;45.876;12.300;2023-03-21T08:55:43;13.90;99.90
3727;DHT22;1879;45.876;12.300;2023-03-21T08:58:10;14.00;99.90
3727;DHT22;1879;45.876;12.300;2023-03-21T09:00:37;14.00;99.90
3727;DHT22;1879;45.876;12.300;2023-03-21T09:03:04;14.10;99.90
3727;DHT22;1879;45.876;12.300;2023-03-21T09:05:32;14.10;99.90
3727;DHT22;1879;45.876;12.300;2023-03-21T09:08:01;14.20;99.90
3727;DHT22;1879;45.876;12.300;2023-03-21T09:10:29;14.30;99.90
3727;DHT22;1879;45.876;12.300;2023-03-21T09:12:56;14.40;99.90
3727;DHT22;1879;45.876;12.300;2023-03-21T09:15:26;14.50;99.90
3727;DHT22;1879;45.876;12.300;2023-03-21T09:17:54;14.60;99.90
3727;DHT22;1879;45.876;12.300;2023-03-21T09:20:25;14.80;99.90
3727;DHT22;1879;45.876;12.300;2023-03-21T09:22:57;14.90;99.90
3727;DHT22;1879;45.876;12.300;2023-03-21T09:25:24;15.00;99.90
3727;DHT22;1879;45.876;12.300;2023-03-21T09:27:54;15.10;99.90
3727;DHT22;1879;45.876;12.300;2023-03-21T09:30:21;15.20;99.90
3727;DHT22;1879;45.876;12.300;2023-03-21T09:32:48;15.30;99.90
3727;DHT22;1879;45.876;12.300;2023-03-21T09:35:15;15.40;99.90
3727;DHT22;1879;45.876;12.300;2023-03-21T09:37:43;15.60;99.90
3727;DHT22;1879;45.876;12.300;2023-03-21T09:40:17;15.70;99.90
3727;DHT22;1879;45.876;12.300;2023-03-21T09:42:54;15.70;99.90
3727;DHT22;1879;45.876;12.300;2023-03-21T09:45:30;15.80;99.90
3727;DHT22;1879;45.876;12.300;2023-03-21T09:48:00;15.90;99.90
3727;DHT22;1879;45.876;12.300;2023-03-21T09:50:30;16.00;99.90
3727;DHT22;1879;45.876;12.300;2023-03-21T09:52:59;16.20;99.90
3727;DHT22;1879;45.876;12.300;2023-03-21T09:55:33;16.30;99.90
3727;DHT22;1879;45.876;12.300;2023-03-21T09:58:07;16.30;99.90
3727;DHT22;1879;45.876;12.300;2023-03-21T10:00:39;16.40;99.90
3727;DHT22;1879;45.876;12.300;2023-03-21T10:03:18;16.60;99.90
3727;DHT22;1879;45.876;12.300;2023-03-21T10:05:50;16.70;99.90
3727;DHT22;1879;45.876;12.300;2023-03-21T10:08:19;16.80;99.90
3727;DHT22;1879;45.876;12.300;2023-03-21T10:10:51;16.80;99.90
3727;DHT22;1879;45.876;12.300;2023-03-21T10:13:21;17.00;99.90
3727;DHT22;1879;45.876;12.300;2023-03-21T10:15:48;17.10;99.90
3727;DHT22;1879;45.876;12.300;2023-03-21T10:18:21;17.20;99.90
3727;DHT22;1879;45.876;12.300;2023-03-21T10:20:50;17.30;99.90
3727;DHT22;1879;45.876;12.300;2023-03-21T10:23:19;17.40;99.90
3727;DHT22;1879;45.876;12.300;2023-03-21T10:25:51;17.50;99.90
3727;DHT22;1879;45.876;12.300;2023-03-21T10:28:21;17.50;99.30
3727;DHT22;1879;45.876;12.300;2023-03-21T10:30:50;17.70;99.00
3727;DHT22;1879;45.876;12.300;2023-03-21T10:33:21;17.80;98.70
3727;DHT22;1879;45.876;12.300;2023-03-21T10:35:51;18.00;97.50
3727;DHT22;1879;45.876;12.300;2023-03-21T10:38:22;18.00;97.20
3727;DHT22;1879;45.876;12.300;2023-03-21T10:40:51;18.10;96.50
3727;DHT22;1879;45.876;12.300;2023-03-21T10:43:30;18.30;96.50
3727;DHT22;1879;45.876;12.300;2023-03-21T10:46:05;18.50;95.90
3727;DHT22;1879;45.876;12.300;2023-03-21T10:48:36;18.70;95.30
3727;DHT22;1879;45.876;12.300;2023-03-21T10:51:06;18.80;95.00
3727;DHT22;1879;45.876;12.300;2023-03-21T10:53:37;19.00;94.00
3727;DHT22;1879;45.876;12.300;2023-03-21T10:56:08;19.00;93.70
3727;DHT22;1879;45.876;12.300;2023-03-21T10:58:40;19.10;92.30
3727;DHT22;1879;45.876;12.300;2023-03-21T11:01:11;19.10;92.80
3727;DHT22;1879;45.876;12.300;2023-03-21T11:03:45;19.10;91.90
3727;DHT22;1879;45.876;12.300;2023-03-21T11:06:21;19.10;91.40
3727;DHT22;1879;45.876;12.300;2023-03-21T11:08:54;19.10;90.90
3727;DHT22;1879;45.876;12.300;2023-03-21T11:11:26;19.20;91.80
3727;DHT22;1879;45.876;12.300;2023-03-21T11:13:59;19.40;91.70
3727;DHT22;1879;45.876;12.300;2023-03-21T11:16:30;19.50;92.00
3727;DHT22;1879;45.876;12.300;2023-03-21T11:19:01;19.60;91.10
3727;DHT22;1879;45.876;12.300;2023-03-21T11:21:35;19.70;90.70
3727;DHT22;1879;45.876;12.300;2023-03-21T11:24:03;19.80;90.10
3727;DHT22;1879;45.876;12.300;2023-03-21T11:26:34;20.10;90.00
3727;DHT22;1879;45.876;12.300;2023-03-21T11:29:11;20.50;88.30
3727;DHT22;1879;45.876;12.300;2023-03-21T11:31:41;21.00;84.60
3727;DHT22;1879;45.876;12.300;2023-03-21T11:34:23;21.30;84.10
3727;DHT22;1879;45.876;12.300;2023-03-21T11:36:52;21.60;79.40
3727;DHT22;1879;45.876;12.300;2023-03-21T11:39:33;21.90;74.20
3727;DHT22;1879;45.876;12.300;2023-03-21T11:42:03;22.40;73.80
3727;DHT22;1879;45.876;12.300;2023-03-21T11:44:32;23.50;70.90
3727;DHT22;1879;45.876;12.300;2023-03-21T11:47:00;23.50;70.90
3727;DHT22;1879;45.876;12.300;2023-03-21T11:49:27;24.30;69.60
3727;DHT22;1879;45.876;12.300;2023-03-21T11:52:05;25.00;65.10
3727;DHT22;1879;45.876;12.300;2023-03-21T11:54:45;25.60;62.10
3727;DHT22;1879;45.876;12.300;2023-03-21T11:57:22;25.90;56.00
3727;DHT22;1879;45.876;12.300;2023-03-21T11:59:58;27.00;55.80
3727;DHT22;1879;45.876;12.300;2023-03-21T12:03:02;28.30;54.70
3727;DHT22;1879;45.876;12.300;2023-03-21T12:05:32;29.30;50.10
3727;DHT22;1879;45.876;12.300;2023-03-21T12:08:05;28.60;48.20
3727;DHT22;1879;45.876;12.300;2023-03-21T12:10:41;29.00;48.80
3727;DHT22;1879;45.876;12.300;2023-03-21T12:13:22;29.90;48.00
3727;DHT22;1879;45.876;12.300;2023-03-21T12:15:58;30.10;47.30
3727;DHT22;1879;45.876;12.300;2023-03-21T12:18:45;30.00;45.10
3727;DHT22;1879;45.876;12.300;2023-03-21T12:21:18;30.40;43.90
3727;DHT22;1879;45.876;12.300;2023-03-21T12:23:56;30.30;43.40
3727;DHT22;1879;45.876;12.300;2023-03-21T12:26:25;31.20;42.50
3727;DHT22;1879;45.876;12.300;2023-03-21T12:29:08;31.00;40.70
3727;DHT22;1879;45.876;12.300;2023-03-21T12:31:48;30.60;39.80
3727;DHT22;1879;45.876;12.300;2023-03-21T12:34:28;31.40;40.80
3727;DHT22;1879;45.876;12.300;2023-03-21T12:37:08;31.50;39.30
3727;DHT22;1879;45.876;12.300;2023-03-21T12:39:40;31.00;39.00
3727;DHT22;1879;45.876;12.300;2023-03-21T12:42:44;31.30;39.20
3727;DHT22;1879;45.876;12.300;2023-03-21T12:45:18;32.00;39.20
3727;DHT22;1879;45.876;12.300;2023-03-21T12:47:49;32.90;40.20
3727;DHT22;1879;45.876;12.300;2023-03-21T12:50:21;32.00;37.60
3727;DHT22;1879;45.876;12.300;2023-03-21T12:52:53;31.50;39.10
3727;DHT22;1879;45.876;12.300;2023-03-21T12:55:23;31.70;38.60
3727;DHT22;1879;45.876;12.300;2023-03-21T12:57:54;32.10;38.50
3727;DHT22;1879;45.876;12.300;2023-03-21T13:00:26;32.90;38.10
3727;DHT22;1879;45.876;12.300;2023-03-21T13:02:57;32.60;38.50
3727;DHT22;1879;45.876;12.300;2023-03-21T13:05:28;31.50;37.70
3727;DHT22;1879;45.876;12.300;2023-03-21T13:07:59;31.40;38.30
3727;DHT22;1879;45.876;12.300;2023-03-21T13:10:29;32.00;38.30
3727;DHT22;1879;45.876;12.300;2023-03-21T13:13:13;31.20;38.20
3727;DHT22;1879;45.876;12.300;2023-03-21T13:16:07;30.40;38.20
3727;DHT22;1879;45.876;12.300;2023-03-21T13:18:49;31.00;39.00
3727;DHT22;1879;45.876;12.300;2023-03-21T13:21:22;30.60;37.60
3727;DHT22;1879;45.876;12.300;2023-03-21T13:23:58;30.70;39.00
3727;DHT22;1879;45.876;12.300;2023-03-21T13:26:32;30.50;38.30
3727;DHT22;1879;45.876;12.300;2023-03-21T13:28:59;30.30;37.70
3727;DHT22;1879;45.876;12.300;2023-03-21T13:31:28;30.40;37.90
3727;DHT22;1879;45.876;12.300;2023-03-21T13:33:58;30.50;37.60
3727;DHT22;1879;45.876;12.300;2023-03-21T13:36:27;29.80;37.20
3727;DHT22;1879;45.876;12.300;2023-03-21T13:38:59;29.70;37.70
3727;DHT22;1879;45.876;12.300;2023-03-21T13:41:30;29.90;38.20
3727;DHT22;1879;45.876;12.300;2023-03-21T13:44:08;30.10;37.80
3727;DHT22;1879;45.876;12.300;2023-03-21T13:46:53;30.60;37.40
3727;DHT22;1879;45.876;12.300;2023-03-21T13:49:33;30.60;37.20
3727;DHT22;1879;45.876;12.300;2023-03-21T13:52:01;29.50;36.60
3727;DHT22;1879;45.876;12.300;2023-03-21T13:54:43;30.10;37.90
3727;DHT22;1879;45.876;12.300;2023-03-21T13:57:37;31.20;37.10
3727;DHT22;1879;45.876;12.300;2023-03-21T14:00:26;30.80;35.70
3727;DHT22;1879;45.876;12.300;2023-03-21T14:02:59;30.60;35.90
3727;DHT22;1879;45.876;12.300;2023-03-21T14:05:28;30.50;36.40
3727;DHT22;1879;45.876;12.300;2023-03-21T14:07:57;30.30;36.40
3727;DHT22;1879;45.876;12.300;2023-03-21T14:10:29;30.20;36.20
3727;DHT22;1879;45.876;12.300;2023-03-21T14:12:59;30.60;36.40
3727;DHT22;1879;45.876;12.300;2023-03-21T14:15:31;30.30;35.40
3727;DHT22;1879;45.876;12.300;2023-03-21T14:18:01;30.30;36.30
3727;DHT22;1879;45.876;12.300;2023-03-21T14:20:30;29.70;35.70
3727;DHT22;1879;45.876;12.300;2023-03-21T14:22:57;29.70;36.40
3727;DHT22;1879;45.876;12.300;2023-03-21T14:25:32;29.60;36.40
3727;DHT22;1879;45.876;12.300;2023-03-21T14:28:01;29.40;36.60
3727;DHT22;1879;45.876;12.300;2023-03-21T14:30:32;29.60;36.90
3727;DHT22;1879;45.876;12.300;2023-03-21T14:33:04;30.10;36.50
3727;DHT22;1879;45.876;12.300;2023-03-21T14:35:34;29.60;36.00
3727;DHT22;1879;45.876;12.300;2023-03-21T14:38:04;29.60;36.70
3727;DHT22;1879;45.876;12.300;2023-03-21T14:40:31;29.50;36.70
3727;DHT22;1879;45.876;12.300;2023-03-21T14:43:03;29.90;37.20
3727;DHT22;1879;45.876;12.300;2023-03-21T14:45:33;29.70;36.90
3727;DHT22;1879;45.876;12.300;2023-03-21T14:48:07;29.20;37.60
3727;DHT22;1879;45.876;12.300;2023-03-21T14:50:38;29.00;37.60
3727;DHT22;1879;45.876;12.300;2023-03-21T14:53:07;28.70;38.40
3727;DHT22;1879;45.876;12.300;2023-03-21T14:55:41;28.30;38.50
3727;DHT22;1879;45.876;12.300;2023-03-21T14:58:11;27.70;38.00
3727;DHT22;1879;45.876;12.300;2023-03-21T15:00:39;27.90;38.60
3727;DHT22;1879;45.876;12.300;2023-03-21T15:03:09;27.50;38.60
3727;DHT22;1879;45.876;12.300;2023-03-21T15:05:37;26.80;39.50
3727;DHT22;1879;45.876;12.300;2023-03-21T15:08:11;26.50;39.80
3727;DHT22;1879;45.876;12.300;2023-03-21T15:10:38;26.30;40.70
3727;DHT22;1879;45.876;12.300;2023-03-21T15:13:13;25.90;40.30
3727;DHT22;1879;45.876;12.300;2023-03-21T15:15:41;25.80;41.00
3727;DHT22;1879;45.876;12.300;2023-03-21T15:18:16;25.70;40.90
3727;DHT22;1879;45.876;12.300;2023-03-21T15:20:45;25.80;41.30
3727;DHT22;1879;45.876;12.300;2023-03-21T15:23:21;25.80;40.70
3727;DHT22;1879;45.876;12.300;2023-03-21T15:25:51;26.00;40.90
3727;DHT22;1879;45.876;12.300;2023-03-21T15:28:19;25.40;40.40
3727;DHT22;1879;45.876;12.300;2023-03-21T15:30:47;25.50;41.60
3727;DHT22;1879;45.876;12.300;2023-03-21T15:33:17;25.00;41.70
3727;DHT22;1879;45.876;12.300;2023-03-21T15:35:49;24.90;42.50
3727;DHT22;1879;45.876;12.300;2023-03-21T15:38:27;24.90;42.80
3727;DHT22;1879;45.876;12.300;2023-03-21T15:41:13;25.00;42.60
3727;DHT22;1879;45.876;12.300;2023-03-21T15:43:41;25.10;42.90
3727;DHT22;1879;45.876;12.300;2023-03-21T15:46:13;25.30;42.50
3727;DHT22;1879;45.876;12.300;2023-03-21T15:48:42;25.40;41.80
3727;DHT22;1879;45.876;12.300;2023-03-21T15:51:16;25.50;41.70
3727;DHT22;1879;45.876;12.300;2023-03-21T15:53:46;25.60;42.00
3727;DHT22;1879;45.876;12.300;2023-03-21T15:56:13;25.40;41.60
3727;DHT22;1879;45.876;12.300;2023-03-21T15:58:43;25.60;42.20
3727;DHT22;1879;45.876;12.300;2023-03-21T16:01:13;24.90;42.10
3727;DHT22;1879;45.876;12.300;2023-03-21T16:03:45;24.60;42.70
3727;DHT22;1879;45.876;12.300;2023-03-21T16:06:18;24.30;42.50
3727;DHT22;1879;45.876;12.300;2023-03-21T16:08:47;24.20;43.20
3727;DHT22;1879;45.876;12.300;2023-03-21T16:11:18;23.90;43.40
3727;DHT22;1879;45.876;12.300;2023-03-21T16:13:45;23.80;43.70
3727;DHT22;1879;45.876;12.300;2023-03-21T16:16:17;23.50;43.70
3727;DHT22;1879;45.876;12.300;2023-03-21T16:18:46;23.20;43.90